createdAt,value
2022-07-28T00:00:17.799Z,90.70
2022-07-28T00:02:45.517Z,90.80
2022-07-28T00:05:13.128Z,91.10
2022-07-28T00:07:40.947Z,90.90
2022-07-28T00:10:09.139Z,90.90
2022-07-28T00:12:36.719Z,90.90
2022-07-28T00:15:04.870Z,91.30
2022-07-28T00:17:32.316Z,91.00
2022-07-28T00:19:59.763Z,91.50
2022-07-28T00:22:27.359Z,91.10
2022-07-28T00:24:55.285Z,91.10
2022-07-28T00:27:23.077Z,91.20
2022-07-28T00:29:51.297Z,91.40
2022-07-28T00:32:20.449Z,91.50
2022-07-28T00:34:48.275Z,91.60
2022-07-28T00:37:15.832Z,91.70
2022-07-28T00:39:43.823Z,91.90
2022-07-28T00:42:12.372Z,92.00
2022-07-28T00:44:41.880Z,92.10
2022-07-28T00:47:09.735Z,92.20
2022-07-28T00:49:37.449Z,92.50
2022-07-28T00:52:07.566Z,92.70
2022-07-28T00:54:36.087Z,92.90
2022-07-28T00:57:04.099Z,93.10
2022-07-28T00:59:33.689Z,93.30
2022-07-28T01:02:02.511Z,93.50
2022-07-28T01:04:30.425Z,93.50
2022-07-28T01:07:16.413Z,93.60
2022-07-28T01:10:02.504Z,93.90
2022-07-28T01:12:33.141Z,93.90
2022-07-28T01:15:21.796Z,93.90
2022-07-28T01:18:15.508Z,94.00
2022-07-28T01:20:50.059Z,94.30
2022-07-28T01:23:46.714Z,94.00
2022-07-28T01:26:30.178Z,94.30
2022-07-28T01:29:03.834Z,94.10
2022-07-28T01:31:41.047Z,94.10
2022-07-28T01:34:15.202Z,94.20
2022-07-28T01:36:46.508Z,94.10
2022-07-28T01:39:17.325Z,94.10
2022-07-28T01:41:46.580Z,94.40
2022-07-28T01:44:19.151Z,94.20
2022-07-28T01:46:48.733Z,94.20
2022-07-28T01:49:18.269Z,94.20
2022-07-28T01:51:47.279Z,94.20
2022-07-28T01:54:16.940Z,94.30
2022-07-28T01:56:46.761Z,94.30
2022-07-28T01:59:15.419Z,94.40
2022-07-28T02:01:45.737Z,94.80
2022-07-28T02:04:15.649Z,94.50
2022-07-28T02:06:44.746Z,94.60
2022-07-28T02:09:13.111Z,94.60
2022-07-28T02:11:41.396Z,94.60
2022-07-28T02:14:18.293Z,94.70
2022-07-28T02:17:03.335Z,94.80
2022-07-28T02:19:32.909Z,94.90
2022-07-28T02:22:03.254Z,94.80
2022-07-28T02:24:32.312Z,94.80
2022-07-28T02:27:05.890Z,94.80
2022-07-28T02:29:50.851Z,95.00
2022-07-28T02:32:27.781Z,95.00
2022-07-28T02:35:02.803Z,95.00
2022-07-28T02:37:36.213Z,95.00
2022-07-28T02:40:05.572Z,95.10
2022-07-28T02:42:35.656Z,95.10
2022-07-28T02:45:06.823Z,95.20
2022-07-28T02:47:40.196Z,95.30
2022-07-28T02:50:08.593Z,95.30
2022-07-28T02:52:36.707Z,95.30
2022-07-28T02:55:06.129Z,95.40
2022-07-28T02:57:34.637Z,95.40
2022-07-28T03:00:02.479Z,95.50
2022-07-28T03:02:30.740Z,95.50
2022-07-28T03:05:02.922Z,95.60
2022-07-28T03:07:50.656Z,95.90
2022-07-28T03:10:33.036Z,95.60
2022-07-28T03:13:04.198Z,95.70
2022-07-28T03:15:32.226Z,95.80
2022-07-28T03:18:01.184Z,95.90
2022-07-28T03:20:29.315Z,96.00
2022-07-28T03:22:58.455Z,96.00
2022-07-28T03:25:44.595Z,96.10
2022-07-28T03:28:17.815Z,96.40
2022-07-28T03:30:58.172Z,96.30
2022-07-28T03:33:26.314Z,96.40
2022-07-28T03:35:58.149Z,96.40
2022-07-28T03:38:53.937Z,96.60
2022-07-28T03:41:22.939Z,97.10
2022-07-28T03:43:51.835Z,96.90
2022-07-28T03:46:21.483Z,96.90
2022-07-28T03:48:49.356Z,97.10
2022-07-28T03:51:17.109Z,97.20
2022-07-28T03:53:45.044Z,97.30
2022-07-28T03:56:12.692Z,97.50
2022-07-28T03:58:40.184Z,97.70
2022-07-28T04:01:07.909Z,97.90
2022-07-28T04:03:35.459Z,98.00
2022-07-28T04:06:10.324Z,98.10
2022-07-28T04:08:37.889Z,98.20
2022-07-28T04:11:05.576Z,98.30
2022-07-28T04:13:33.476Z,98.40
2022-07-28T04:16:01.106Z,98.60
2022-07-28T04:18:28.953Z,98.60
2022-07-28T04:20:56.649Z,98.70
2022-07-28T04:23:24.701Z,98.70
2022-07-28T04:25:52.279Z,98.70
2022-07-28T04:28:19.894Z,99.00
2022-07-28T04:30:47.560Z,99.00
2022-07-28T04:33:15.391Z,99.10
2022-07-28T04:35:42.864Z,99.20
2022-07-28T04:38:12.142Z,99.30
2022-07-28T04:40:39.725Z,99.50
2022-07-28T04:43:07.273Z,99.70
2022-07-28T04:45:34.847Z,99.70
2022-07-28T04:48:02.534Z,99.80
2022-07-28T04:50:30.139Z,99.80
2022-07-28T04:53:00.549Z,99.90
2022-07-28T04:55:28.184Z,99.80
2022-07-28T04:57:55.970Z,99.80
2022-07-28T05:00:23.728Z,99.90
2022-07-28T05:02:51.833Z,99.90
2022-07-28T05:05:19.417Z,99.90
2022-07-28T05:07:46.923Z,99.90
2022-07-28T05:10:14.443Z,99.90
2022-07-28T05:12:42.677Z,99.90
2022-07-28T05:15:10.103Z,99.90
2022-07-28T05:17:37.743Z,99.90
2022-07-28T05:20:06.811Z,99.90
2022-07-28T05:22:45.531Z,99.90
2022-07-28T05:25:20.468Z,99.90
2022-07-28T05:27:49.286Z,99.90
2022-07-28T05:30:18.061Z,99.90
2022-07-28T05:32:45.704Z,99.90
2022-07-28T05:35:13.693Z,99.90
2022-07-28T05:37:41.597Z,99.90
2022-07-28T05:40:13.666Z,99.90
2022-07-28T05:42:43.402Z,99.90
2022-07-28T05:45:16.060Z,99.90
2022-07-28T05:47:47.229Z,99.90
2022-07-28T05:50:16.075Z,99.90
2022-07-28T05:52:43.701Z,99.90
2022-07-28T05:55:12.164Z,99.90
2022-07-28T05:57:40.754Z,99.90
2022-07-28T06:00:16.773Z,99.90
2022-07-28T06:02:45.843Z,99.90
2022-07-28T06:05:14.164Z,99.90
2022-07-28T06:07:42.955Z,99.90
2022-07-28T06:10:13.580Z,99.90
2022-07-28T06:12:46.887Z,99.90
2022-07-28T06:15:20.725Z,99.90
2022-07-28T06:17:52.448Z,99.80
2022-07-28T06:20:24.515Z,99.20
2022-07-28T06:22:55.385Z,98.80
2022-07-28T06:25:25.892Z,98.20
2022-07-28T06:27:56.251Z,97.50
2022-07-28T06:30:24.655Z,96.80
2022-07-28T06:32:52.285Z,96.10
2022-07-28T06:35:20.285Z,95.30
2022-07-28T06:37:49.218Z,94.80
2022-07-28T06:40:18.486Z,94.10
2022-07-28T06:42:46.793Z,93.40
2022-07-28T06:45:20.715Z,93.10
2022-07-28T06:47:50.153Z,92.60
2022-07-28T06:50:25.309Z,92.10
2022-07-28T06:52:58.799Z,91.90
2022-07-28T06:55:28.431Z,91.30
2022-07-28T06:58:02.793Z,91.20
2022-07-28T07:00:30.639Z,90.90
2022-07-28T07:02:58.257Z,90.50
2022-07-28T07:05:28.217Z,90.30
2022-07-28T07:07:56.125Z,90.20
2022-07-28T07:10:24.052Z,90.10
2022-07-28T07:12:51.656Z,88.70
2022-07-28T07:15:19.240Z,88.00
2022-07-28T07:17:46.927Z,87.30
2022-07-28T07:20:17.226Z,87.00
2022-07-28T07:22:47.134Z,86.40
2022-07-28T07:25:18.930Z,85.30
2022-07-28T07:27:47.107Z,84.40
2022-07-28T07:30:15.122Z,83.70
2022-07-28T07:32:42.599Z,81.10
2022-07-28T07:35:10.721Z,80.70
2022-07-28T07:37:38.161Z,83.00
2022-07-28T07:40:06.401Z,80.30
2022-07-28T07:42:34.079Z,82.20
2022-07-28T07:45:01.688Z,81.80
2022-07-28T07:47:29.344Z,81.20
2022-07-28T07:49:56.928Z,81.60
2022-07-28T07:52:24.460Z,81.50
2022-07-28T07:54:51.931Z,81.20
2022-07-28T07:57:19.493Z,81.30
2022-07-28T07:59:46.988Z,80.60
2022-07-28T08:02:14.648Z,80.40
2022-07-28T08:04:42.209Z,79.90
2022-07-28T08:07:10.660Z,79.60
2022-07-28T08:09:38.197Z,79.70
2022-07-28T08:12:06.126Z,79.10
2022-07-28T08:14:33.694Z,78.30
2022-07-28T08:17:01.933Z,77.60
2022-07-28T08:19:29.455Z,77.30
2022-07-28T08:21:57.106Z,77.10
2022-07-28T08:24:32.292Z,76.80
2022-07-28T08:27:02.474Z,76.20
2022-07-28T08:29:30.081Z,75.70
2022-07-28T08:31:57.703Z,75.20
2022-07-28T08:34:31.299Z,74.60
2022-07-28T08:37:03.254Z,74.10
2022-07-28T08:39:32.434Z,74.00
2022-07-28T08:42:11.936Z,74.30
2022-07-28T08:45:02.037Z,73.00
2022-07-28T08:47:40.495Z,71.90
2022-07-28T08:50:10.077Z,72.20
2022-07-28T08:52:39.830Z,72.40
2022-07-28T08:55:09.072Z,71.80
2022-07-28T08:57:41.036Z,71.50
2022-07-28T09:00:12.778Z,71.30
2022-07-28T09:02:45.527Z,71.10
2022-07-28T09:05:13.730Z,70.10
2022-07-28T09:07:42.101Z,70.50
2022-07-28T09:10:11.773Z,70.10
2022-07-28T09:12:42.782Z,70.10
2022-07-28T09:15:11.864Z,70.40
2022-07-28T09:17:41.044Z,70.30
2022-07-28T09:20:11.329Z,70.10
2022-07-28T09:23:02.051Z,69.90
2022-07-28T09:25:30.411Z,67.50
2022-07-28T09:28:08.654Z,68.20
2022-07-28T09:30:52.485Z,67.30
2022-07-28T09:33:42.962Z,66.50
2022-07-28T09:36:16.411Z,67.20
2022-07-28T09:38:44.741Z,67.40
2022-07-28T09:41:12.484Z,67.10
2022-07-28T09:43:43.302Z,66.80
2022-07-28T09:46:16.570Z,65.90
2022-07-28T09:48:50.657Z,65.20
2022-07-28T09:51:21.483Z,63.90
2022-07-28T09:53:49.699Z,64.10
2022-07-28T09:56:17.492Z,64.10
2022-07-28T09:58:57.420Z,63.80
2022-07-28T10:01:29.905Z,62.50
2022-07-28T10:04:03.379Z,63.30
2022-07-28T10:06:33.114Z,62.00
2022-07-28T10:09:03.226Z,63.50
2022-07-28T10:11:31.118Z,63.10
2022-07-28T10:13:58.709Z,62.60
2022-07-28T10:16:33.693Z,62.00
2022-07-28T10:19:03.993Z,62.50
2022-07-28T10:21:34.466Z,62.90
2022-07-28T10:24:09.344Z,62.80
2022-07-28T10:26:44.159Z,62.10
2022-07-28T10:29:20.917Z,62.80
2022-07-28T10:31:57.856Z,62.60
2022-07-28T10:34:33.909Z,62.10
2022-07-28T10:37:06.655Z,62.20
2022-07-28T10:39:42.232Z,61.70
2022-07-28T10:42:12.289Z,61.50
2022-07-28T10:44:41.720Z,61.80
2022-07-28T10:47:18.234Z,62.10
2022-07-28T10:49:49.055Z,62.00
2022-07-28T10:52:45.778Z,62.20
2022-07-28T10:55:31.943Z,62.10
2022-07-28T10:58:15.103Z,62.40
2022-07-28T11:01:04.681Z,62.10
2022-07-28T11:03:44.215Z,62.40
2022-07-28T11:06:24.488Z,62.50
2022-07-28T11:08:55.700Z,62.30
2022-07-28T11:11:44.872Z,62.70
2022-07-28T11:14:29.514Z,63.00
2022-07-28T11:17:10.690Z,64.00
2022-07-28T11:20:24.849Z,64.50
2022-07-28T11:22:34.061Z,64.30
2022-07-28T11:25:19.089Z,64.10
2022-07-28T11:27:54.361Z,64.20
2022-07-28T11:30:28.885Z,64.50
2022-07-28T11:32:57.748Z,64.50
2022-07-28T11:35:52.033Z,64.90
2022-07-28T11:38:19.984Z,65.40
2022-07-28T11:40:50.213Z,65.90
2022-07-28T11:43:35.382Z,66.20
2022-07-28T11:46:09.534Z,65.70
2022-07-28T11:48:39.812Z,66.00
2022-07-28T11:51:07.384Z,66.00
2022-07-28T11:53:42.083Z,66.30
2022-07-28T11:56:14.173Z,65.90
2022-07-28T11:58:43.235Z,65.80
2022-07-28T12:01:17.838Z,66.00
2022-07-28T12:03:56.007Z,65.80
2022-07-28T12:06:28.560Z,65.70
2022-07-28T12:09:08.099Z,65.30
2022-07-28T12:11:37.832Z,65.00
2022-07-28T12:14:14.239Z,64.60
2022-07-28T12:16:44.210Z,64.10
2022-07-28T12:19:16.105Z,64.00
2022-07-28T12:21:48.067Z,63.60
2022-07-28T12:24:28.172Z,64.00
2022-07-28T12:26:57.559Z,63.80
2022-07-28T12:29:32.290Z,63.80
2022-07-28T12:32:09.963Z,63.90
2022-07-28T12:34:40.609Z,63.30
2022-07-28T12:37:09.910Z,63.40
2022-07-28T12:39:42.108Z,63.40
2022-07-28T12:42:12.606Z,63.30
2022-07-28T12:44:42.793Z,63.20
2022-07-28T12:47:12.733Z,63.50
2022-07-28T12:49:42.510Z,63.80
2022-07-28T12:52:23.124Z,63.90
2022-07-28T12:54:55.759Z,63.70
2022-07-28T12:57:49.162Z,64.20
2022-07-28T13:00:21.422Z,64.30
2022-07-28T13:02:50.909Z,64.40
2022-07-28T13:05:56.468Z,64.10
2022-07-28T13:08:27.607Z,64.20
2022-07-28T13:10:59.196Z,64.20
2022-07-28T13:13:27.672Z,63.90
2022-07-28T13:16:15.658Z,64.60
2022-07-28T13:18:46.420Z,63.60
2022-07-28T13:21:15.141Z,63.10
2022-07-28T13:23:43.992Z,63.70
2022-07-28T13:26:11.564Z,63.90
2022-07-28T13:28:39.697Z,64.10
2022-07-28T13:31:07.415Z,64.10
2022-07-28T13:33:34.992Z,63.90
2022-07-28T13:36:02.574Z,63.90
2022-07-28T13:38:30.218Z,63.90
2022-07-28T13:40:57.936Z,63.80
2022-07-28T13:43:36.281Z,63.40
2022-07-28T13:46:04.551Z,62.90
2022-07-28T13:48:36.057Z,62.10
2022-07-28T13:51:03.804Z,61.90
2022-07-28T13:53:34.374Z,61.60
2022-07-28T13:56:02.017Z,61.00
2022-07-28T13:58:29.600Z,60.30
2022-07-28T14:00:57.676Z,59.80
2022-07-28T14:03:25.671Z,59.50
2022-07-28T14:05:53.445Z,58.90
2022-07-28T14:08:21.393Z,58.70
2022-07-28T14:11:01.231Z,58.10
2022-07-28T14:13:31.543Z,58.30
2022-07-28T14:16:07.775Z,57.80
2022-07-28T14:18:38.565Z,57.20
2022-07-28T14:21:06.439Z,56.90
2022-07-28T14:23:34.106Z,56.40
2022-07-28T14:26:25.211Z,55.00
2022-07-28T14:28:49.022Z,56.30
2022-07-28T14:31:18.036Z,55.60
2022-07-28T14:33:52.254Z,56.90
2022-07-28T14:36:22.154Z,56.90
2022-07-28T14:38:53.404Z,56.50
2022-07-28T14:41:23.347Z,56.10
2022-07-28T14:43:50.913Z,56.00
2022-07-28T14:46:21.793Z,55.90
2022-07-28T14:48:49.839Z,55.20
2022-07-28T14:51:17.852Z,54.80
2022-07-28T14:53:51.863Z,55.00
2022-07-28T14:56:19.867Z,54.50
2022-07-28T14:58:47.472Z,54.30
2022-07-28T15:01:15.195Z,54.40
2022-07-28T15:03:43.211Z,55.00
2022-07-28T15:06:11.155Z,55.60
2022-07-28T15:08:38.792Z,56.10
2022-07-28T15:11:06.337Z,56.70
2022-07-28T15:13:34.089Z,57.50
2022-07-28T15:16:02.307Z,58.00
2022-07-28T15:18:29.980Z,58.20
2022-07-28T15:20:57.511Z,58.60
2022-07-28T15:23:25.065Z,58.70
2022-07-28T15:25:53.315Z,58.40
2022-07-28T15:28:21.260Z,58.30
2022-07-28T15:30:52.931Z,58.20
2022-07-28T15:33:21.277Z,58.10
2022-07-28T15:35:57.559Z,58.20
2022-07-28T15:38:31.464Z,58.30
2022-07-28T15:40:59.820Z,58.90
2022-07-28T15:43:28.574Z,58.40
2022-07-28T15:45:57.450Z,58.50
2022-07-28T15:48:25.159Z,58.70
2022-07-28T15:50:52.803Z,58.90
2022-07-28T15:53:20.479Z,59.20
2022-07-28T15:55:51.290Z,59.40
2022-07-28T15:58:21.204Z,59.60
2022-07-28T16:00:50.097Z,59.40
2022-07-28T16:03:17.941Z,59.50
2022-07-28T16:05:49.407Z,59.50
2022-07-28T16:08:22.979Z,59.20
2022-07-28T16:10:52.805Z,58.90
2022-07-28T16:13:37.165Z,59.10
2022-07-28T16:16:10.195Z,58.00
2022-07-28T16:18:39.364Z,57.20
2022-07-28T16:21:08.526Z,57.00
2022-07-28T16:23:36.149Z,56.70
2022-07-28T16:26:07.743Z,56.30
2022-07-28T16:28:36.515Z,55.80
2022-07-28T16:31:04.539Z,55.70
2022-07-28T16:33:33.576Z,55.50
2022-07-28T16:36:02.593Z,55.20
2022-07-28T16:38:30.598Z,54.30
2022-07-28T16:40:58.149Z,53.90
2022-07-28T16:43:25.795Z,53.90
2022-07-28T16:45:53.579Z,54.10
2022-07-28T16:48:21.306Z,54.40
2022-07-28T16:50:49.029Z,55.20
2022-07-28T16:53:16.795Z,56.00
2022-07-28T16:55:46.855Z,57.00
2022-07-28T16:58:15.081Z,58.20
2022-07-28T17:00:42.612Z,59.30
2022-07-28T17:03:11.225Z,59.90
2022-07-28T17:05:38.996Z,60.70
2022-07-28T17:08:06.529Z,61.30
2022-07-28T17:10:34.080Z,61.80
2022-07-28T17:13:01.703Z,62.10
2022-07-28T17:15:29.470Z,62.30
2022-07-28T17:17:57.181Z,62.40
2022-07-28T17:20:25.441Z,62.50
2022-07-28T17:22:53.153Z,62.70
2022-07-28T17:28:11.400Z,63.10
2022-07-28T17:30:40.429Z,63.00
2022-07-28T17:33:09.098Z,63.10
2022-07-28T17:35:38.629Z,63.40
2022-07-28T17:38:09.109Z,63.70
2022-07-28T17:40:38.284Z,64.00
2022-07-28T17:43:06.433Z,64.10
2022-07-28T17:45:33.964Z,63.90
2022-07-28T17:48:01.480Z,64.00
2022-07-28T17:50:29.163Z,64.20
2022-07-28T17:52:57.088Z,64.20
2022-07-28T17:55:57.561Z,64.50
2022-07-28T17:58:28.688Z,64.90
2022-07-28T18:01:10.042Z,65.10
2022-07-28T18:03:59.690Z,65.80
2022-07-28T18:06:30.348Z,65.70
2022-07-28T18:09:05.326Z,66.00
2022-07-28T18:11:37.605Z,65.60
2022-07-28T18:14:28.368Z,65.40
2022-07-28T18:16:56.548Z,65.40
2022-07-28T18:19:24.343Z,65.70
2022-07-28T18:21:52.059Z,66.00
2022-07-28T18:24:21.920Z,66.40
2022-07-28T18:26:51.319Z,66.60
2022-07-28T18:29:20.938Z,66.60
2022-07-28T18:31:52.709Z,66.80
2022-07-28T18:34:24.916Z,67.30
2022-07-28T18:36:54.117Z,67.60
2022-07-28T18:39:21.877Z,68.00
2022-07-28T18:41:49.446Z,68.40
2022-07-28T18:44:18.079Z,68.90
2022-07-28T18:46:46.405Z,69.20
2022-07-28T18:49:14.766Z,69.60
2022-07-28T18:51:44.208Z,70.10
2022-07-28T18:54:18.788Z,70.60
2022-07-28T18:56:47.910Z,71.30
2022-07-28T18:59:15.675Z,71.70
2022-07-28T19:01:43.470Z,72.10
2022-07-28T19:04:14.205Z,72.70
2022-07-28T19:06:41.861Z,72.60
2022-07-28T19:09:09.339Z,72.90
2022-07-28T19:11:40.071Z,72.10
2022-07-28T19:14:10.131Z,72.40
2022-07-28T19:16:37.748Z,72.80
2022-07-28T19:19:05.443Z,73.30
2022-07-28T19:21:34.686Z,73.80
2022-07-28T19:24:02.315Z,75.00
2022-07-28T19:26:29.839Z,75.70
2022-07-28T19:28:57.712Z,75.90
2022-07-28T19:31:26.452Z,76.30
2022-07-28T19:33:55.433Z,76.60
2022-07-28T19:36:23.193Z,77.20
2022-07-28T19:38:50.698Z,77.70
2022-07-28T19:41:18.521Z,78.00
2022-07-28T19:43:46.118Z,78.40
2022-07-28T19:46:13.761Z,78.70
2022-07-28T19:48:41.445Z,78.90
2022-07-28T19:51:09.196Z,79.40
2022-07-28T19:53:37.064Z,79.90
2022-07-28T19:56:09.024Z,80.10
2022-07-28T19:58:37.298Z,80.40
2022-07-28T20:01:05.729Z,80.80
2022-07-28T20:04:02.148Z,81.10
2022-07-28T20:06:25.009Z,81.20
2022-07-28T20:08:53.355Z,82.70
2022-07-28T20:11:20.907Z,82.60
2022-07-28T20:13:49.469Z,82.80
2022-07-28T20:16:17.219Z,83.40
2022-07-28T20:18:44.695Z,83.10
2022-07-28T20:21:12.978Z,83.70
2022-07-28T20:23:41.093Z,83.90
2022-07-28T20:26:10.033Z,84.00
2022-07-28T20:28:37.968Z,83.70
2022-07-28T20:31:06.629Z,84.10
2022-07-28T20:33:34.132Z,84.70
2022-07-28T20:36:01.647Z,85.20
2022-07-28T20:38:28.919Z,85.30
2022-07-28T20:40:56.823Z,85.40
2022-07-28T20:43:24.230Z,85.50
2022-07-28T20:46:05.308Z,85.30
2022-07-28T20:48:32.947Z,85.40
2022-07-28T20:51:00.329Z,85.60
2022-07-28T20:53:27.634Z,86.60
2022-07-28T20:55:55.031Z,86.40
2022-07-28T20:58:22.729Z,86.40
2022-07-28T21:00:51.668Z,86.60
2022-07-28T21:03:19.689Z,86.40
2022-07-28T21:05:47.061Z,86.90
2022-07-28T21:08:16.311Z,87.10
2022-07-28T21:10:44.835Z,87.50
2022-07-28T21:13:12.189Z,87.90
2022-07-28T21:15:39.492Z,87.80
2022-07-28T21:18:06.833Z,88.00
2022-07-28T21:20:34.157Z,88.50
2022-07-28T21:23:01.442Z,88.10
2022-07-28T21:25:32.316Z,89.10
2022-07-28T21:28:18.039Z,89.30
2022-07-28T21:30:45.927Z,89.30
2022-07-28T21:33:13.429Z,89.90
2022-07-28T21:35:50.043Z,89.90
2022-07-28T21:38:17.455Z,89.70
2022-07-28T21:40:44.774Z,89.60
2022-07-28T21:43:12.243Z,90.00
2022-07-28T21:45:39.652Z,90.10
2022-07-28T21:48:06.966Z,90.20
2022-07-28T21:50:35.916Z,90.20
2022-07-28T21:53:04.029Z,90.40
2022-07-28T21:55:31.458Z,90.20
2022-07-28T21:57:58.770Z,90.10
2022-07-28T22:00:26.296Z,90.40
2022-07-28T22:02:53.758Z,90.50
2022-07-28T22:05:21.324Z,90.50
2022-07-28T22:07:49.090Z,90.80
2022-07-28T22:10:17.430Z,90.70
2022-07-28T22:12:45.530Z,90.40
2022-07-28T22:15:12.942Z,90.70
2022-07-28T22:17:40.297Z,90.80
2022-07-28T22:20:08.215Z,91.10
2022-07-28T22:22:35.591Z,91.20
2022-07-28T22:25:03.227Z,91.20
2022-07-28T22:27:30.605Z,91.60
2022-07-28T22:29:58.083Z,91.50
2022-07-28T22:32:28.786Z,91.60
2022-07-28T22:34:59.811Z,91.70
2022-07-28T22:37:27.207Z,91.60
2022-07-28T22:39:54.697Z,91.70
2022-07-28T22:42:22.254Z,91.70
2022-07-28T22:44:49.603Z,91.60
2022-07-28T22:47:17.062Z,91.90
2022-07-28T22:49:44.368Z,92.00
2022-07-28T22:52:11.815Z,92.00
2022-07-28T22:54:39.923Z,92.20
2022-07-28T22:57:07.456Z,92.10
2022-07-28T22:59:38.461Z,92.30
2022-07-28T23:02:07.215Z,92.30
2022-07-28T23:04:34.601Z,92.30
2022-07-28T23:07:01.951Z,92.40
2022-07-28T23:09:29.293Z,92.50
2022-07-28T23:11:56.919Z,92.30
2022-07-28T23:14:24.275Z,92.40
2022-07-28T23:16:51.707Z,92.40
2022-07-28T23:19:19.036Z,92.50
2022-07-28T23:21:46.386Z,92.30
2022-07-28T23:24:14.124Z,92.50
2022-07-28T23:26:41.635Z,92.40
2022-07-28T23:29:08.918Z,92.50
2022-07-28T23:31:36.524Z,92.30
2022-07-28T23:34:03.881Z,92.40
2022-07-28T23:36:31.285Z,92.70
2022-07-28T23:38:59.158Z,92.80
2022-07-28T23:41:27.007Z,92.80
2022-07-28T23:43:54.662Z,92.80
2022-07-28T23:46:22.268Z,93.30
2022-07-28T23:48:49.975Z,93.00
2022-07-28T23:51:17.445Z,93.10
2022-07-28T23:53:44.762Z,93.60
2022-07-28T23:56:13.630Z,94.00
2022-07-28T23:58:41.200Z,94.00
